sensor_id;sensor_type;location;lat;lon;timestamp;pressure;altitude;pressure_sealevel;temperature;humidity
59767;BME280;46248;58.364;25.582;2023-06-10T00:00:07;101944.72;;;8.20;52.53
59767;BME280;46248;58.364;25.582;2023-06-10T00:03:33;101950.88;;;8.16;52.85
59767;BME280;46248;58.364;25.582;2023-06-10T00:06:57;101949.28;;;8.09;53.54
59767;BME280;46248;58.364;25.582;2023-06-10T00:10:22;101948.47;;;8.06;52.69
59767;BME280;46248;58.364;25.582;2023-06-10T00:13:45;101946.81;;;8.00;53.32
59767;BME280;46248;58.364;25.582;2023-06-10T00:17:08;101960.78;;;7.99;54.21
59767;BME280;46248;58.364;25.582;2023-06-10T00:20:31;101972.97;;;7.97;54.38
59767;BME280;46248;58.364;25.582;2023-06-10T00:23:57;101956.69;;;7.84;54.44
59767;BME280;46248;58.364;25.582;2023-06-10T00:27:25;101968.88;;;7.82;53.64
59767;BME280;46248;58.364;25.582;2023-06-10T00:30:52;101974.09;;;7.82;54.21
59767;BME280;46248;58.364;25.582;2023-06-10T00:34:16;101967.31;;;7.72;53.85
59767;BME280;46248;58.364;25.582;2023-06-10T00:37:39;101976.81;;;7.74;54.07
59767;BME280;46248;58.364;25.582;2023-06-10T00:41:02;101967.47;;;7.61;54.35
59767;BME280;46248;58.364;25.582;2023-06-10T00:44:26;101982.16;;;7.65;54.91
59767;BME280;46248;58.364;25.582;2023-06-10T00:47:49;101982.31;;;7.56;55.13
59767;BME280;46248;58.364;25.582;2023-06-10T00:51:12;101969.44;;;7.45;54.84
59767;BME280;46248;58.364;25.582;2023-06-10T00:54:34;101990.22;;;7.50;53.97
59767;BME280;46248;58.364;25.582;2023-06-10T00:57:58;101985.13;;;7.42;54.45
59767;BME280;46248;58.364;25.582;2023-06-10T01:01:23;101980.88;;;7.35;54.70
59767;BME280;46248;58.364;25.582;2023-06-10T01:04:46;101989.66;;;7.29;54.29
59767;BME280;46248;58.364;25.582;2023-06-10T01:08:17;101988.03;;;7.21;55.01
59767;BME280;46248;58.364;25.582;2023-06-10T01:11:47;101984.75;;;7.05;55.36
59767;BME280;46248;58.364;25.582;2023-06-10T01:15:11;101986.50;;;7.04;55.99
59767;BME280;46248;58.364;25.582;2023-06-10T01:18:35;101998.72;;;7.02;55.93
59767;BME280;46248;58.364;25.582;2023-06-10T01:22:01;102002.25;;;6.95;57.31
59767;BME280;46248;58.364;25.582;2023-06-10T01:25:26;101983.44;;;6.75;57.31
59767;BME280;46248;58.364;25.582;2023-06-10T01:28:56;102000.66;;;6.83;56.64
59767;BME280;46248;58.364;25.582;2023-06-10T01:32:25;102014.59;;;6.79;57.46
59767;BME280;46248;58.364;25.582;2023-06-10T01:35:50;102007.75;;;6.72;58.06
59767;BME280;46248;58.364;25.582;2023-06-10T01:39:15;102020.78;;;6.72;58.42
59767;BME280;46248;58.364;25.582;2023-06-10T01:42:39;102007.81;;;6.66;57.74
59767;BME280;46248;58.364;25.582;2023-06-10T01:46:02;102013.03;;;6.66;58.26
59767;BME280;46248;58.364;25.582;2023-06-10T01:49:25;102028.63;;;6.69;59.02
59767;BME280;46248;58.364;25.582;2023-06-10T01:52:49;102029.47;;;6.70;59.22
59767;BME280;46248;58.364;25.582;2023-06-10T01:56:13;102029.50;;;6.67;60.03
59767;BME280;46248;58.364;25.582;2023-06-10T01:59:40;102023.44;;;6.66;59.90
59767;BME280;46248;58.364;25.582;2023-06-10T02:03:05;102037.25;;;6.71;60.37
59767;BME280;46248;58.364;25.582;2023-06-10T02:06:28;102031.19;;;6.72;60.71
59767;BME280;46248;58.364;25.582;2023-06-10T02:09:52;102037.25;;;6.73;60.58
59767;BME280;46248;58.364;25.582;2023-06-10T02:13:16;102032.91;;;6.73;61.22
59767;BME280;46248;58.364;25.582;2023-06-10T02:16:39;102034.56;;;6.79;61.05
59767;BME280;46248;58.364;25.582;2023-06-10T02:20:03;102029.22;;;6.89;60.83
59767;BME280;46248;58.364;25.582;2023-06-10T02:23:27;102042.81;;;7.16;61.00
59767;BME280;46248;58.364;25.582;2023-06-10T02:26:50;102041.78;;;7.28;60.64
59767;BME280;46248;58.364;25.582;2023-06-10T02:30:15;102037.34;;;7.36;60.32
59767;BME280;46248;58.364;25.582;2023-06-10T02:33:38;102045.94;;;7.43;60.42
59767;BME280;46248;58.364;25.582;2023-06-10T02:37:03;102045.84;;;7.49;60.16
59767;BME280;46248;58.364;25.582;2023-06-10T02:40:26;102038.88;;;7.51;59.51
59767;BME280;46248;58.364;25.582;2023-06-10T02:43:49;102049.13;;;7.62;60.16
59767;BME280;46248;58.364;25.582;2023-06-10T02:47:13;102051.56;;;7.74;59.51
59767;BME280;46248;58.364;25.582;2023-06-10T02:50:36;102055.78;;;7.84;59.58
59767;BME280;46248;58.364;25.582;2023-06-10T02:54:01;102055.72;;;7.86;59.03
59767;BME280;46248;58.364;25.582;2023-06-10T02:57:24;102058.25;;;7.92;58.81
59767;BME280;46248;58.364;25.582;2023-06-10T03:00:47;102061.59;;;7.98;58.86
59767;BME280;46248;58.364;25.582;2023-06-10T03:04:11;102057.13;;;8.07;58.54
59767;BME280;46248;58.364;25.582;2023-06-10T03:07:36;102067.38;;;8.20;58.44
59767;BME280;46248;58.364;25.582;2023-06-10T03:10:59;102073.25;;;8.32;58.66
59767;BME280;46248;58.364;25.582;2023-06-10T03:14:22;102066.13;;;8.44;57.89
59767;BME280;46248;58.364;25.582;2023-06-10T03:17:45;102071.63;;;8.76;57.48
59767;BME280;46248;58.364;25.582;2023-06-10T03:21:09;102075.41;;;9.06;56.75
59767;BME280;46248;58.364;25.582;2023-06-10T03:24:33;102068.56;;;9.40;56.40
59767;BME280;46248;58.364;25.582;2023-06-10T03:27:56;102073.13;;;9.71;54.65
59767;BME280;46248;58.364;25.582;2023-06-10T03:31:19;102073.38;;;9.98;54.75
59767;BME280;46248;58.364;25.582;2023-06-10T03:34:43;102078.06;;;10.21;54.20
59767;BME280;46248;58.364;25.582;2023-06-10T03:38:10;102077.28;;;10.53;53.49
59767;BME280;46248;58.364;25.582;2023-06-10T03:41:33;102084.41;;;10.81;52.65
59767;BME280;46248;58.364;25.582;2023-06-10T03:44:56;102087.41;;;10.98;52.48
59767;BME280;46248;58.364;25.582;2023-06-10T03:48:19;102082.53;;;11.17;51.93
59767;BME280;46248;58.364;25.582;2023-06-10T03:51:42;102079.94;;;11.45;51.79
59767;BME280;46248;58.364;25.582;2023-06-10T03:55:07;102086.00;;;11.75;50.83
59767;BME280;46248;58.364;25.582;2023-06-10T03:58:32;102075.81;;;11.94;50.25
59767;BME280;46248;58.364;25.582;2023-06-10T04:01:56;102083.16;;;12.11;49.10
59767;BME280;46248;58.364;25.582;2023-06-10T04:05:19;102087.28;;;12.18;49.35
59767;BME280;46248;58.364;25.582;2023-06-10T04:08:44;102088.88;;;12.24;48.53
59767;BME280;46248;58.364;25.582;2023-06-10T04:12:09;102082.38;;;12.34;48.86
59767;BME280;46248;58.364;25.582;2023-06-10T04:15:32;102080.16;;;12.48;48.40
59767;BME280;46248;58.364;25.582;2023-06-10T04:18:54;102091.63;;;12.71;48.68
59767;BME280;46248;58.364;25.582;2023-06-10T04:22:18;102089.22;;;12.90;48.11
59767;BME280;46248;58.364;25.582;2023-06-10T04:25:41;102097.78;;;13.20;48.16
59767;BME280;46248;58.364;25.582;2023-06-10T04:29:05;102094.63;;;13.34;47.38
59767;BME280;46248;58.364;25.582;2023-06-10T04:32:28;102097.91;;;13.40;46.45
59767;BME280;46248;58.364;25.582;2023-06-10T04:35:51;102107.06;;;13.30;46.77
59767;BME280;46248;58.364;25.582;2023-06-10T04:39:13;102104.16;;;13.38;46.95
59767;BME280;46248;58.364;25.582;2023-06-10T04:42:38;102097.84;;;13.42;47.32
59767;BME280;46248;58.364;25.582;2023-06-10T04:46:02;102105.84;;;13.62;46.82
59767;BME280;46248;58.364;25.582;2023-06-10T04:49:28;102112.16;;;13.80;46.28
59767;BME280;46248;58.364;25.582;2023-06-10T04:52:51;102108.38;;;13.87;46.07
59767;BME280;46248;58.364;25.582;2023-06-10T04:56:14;102109.47;;;14.04;45.81
59767;BME280;46248;58.364;25.582;2023-06-10T04:59:37;102120.13;;;14.01;45.80
59767;BME280;46248;58.364;25.582;2023-06-10T05:03:01;102111.91;;;14.08;45.61
59767;BME280;46248;58.364;25.582;2023-06-10T05:06:24;102108.97;;;14.16;45.48
59767;BME280;46248;58.364;25.582;2023-06-10T05:09:47;102115.38;;;14.31;45.16
59767;BME280;46248;58.364;25.582;2023-06-10T05:13:10;102106.44;;;14.35;45.01
59767;BME280;46248;58.364;25.582;2023-06-10T05:16:33;102116.47;;;14.47;44.58
59767;BME280;46248;58.364;25.582;2023-06-10T05:19:58;102111.91;;;14.51;43.89
59767;BME280;46248;58.364;25.582;2023-06-10T05:23:21;102118.47;;;14.62;44.07
59767;BME280;46248;58.364;25.582;2023-06-10T05:26:44;102111.16;;;14.69;43.60
59767;BME280;46248;58.364;25.582;2023-06-10T05:30:09;102124.63;;;14.83;42.69
59767;BME280;46248;58.364;25.582;2023-06-10T05:33:32;102130.94;;;14.79;43.02
59767;BME280;46248;58.364;25.582;2023-06-10T05:36:56;102121.34;;;14.97;42.41
59767;BME280;46248;58.364;25.582;2023-06-10T05:40:19;102128.00;;;15.06;42.27
59767;BME280;46248;58.364;25.582;2023-06-10T05:43:42;102130.88;;;15.01;41.91
59767;BME280;46248;58.364;25.582;2023-06-10T05:47:05;102126.31;;;14.84;41.33
59767;BME280;46248;58.364;25.582;2023-06-10T05:50:28;102139.59;;;14.83;41.46
59767;BME280;46248;58.364;25.582;2023-06-10T05:53:52;102129.53;;;14.91;40.96
59767;BME280;46248;58.364;25.582;2023-06-10T05:57:15;102137.53;;;15.10;41.49
59767;BME280;46248;58.364;25.582;2023-06-10T06:00:38;102132.28;;;15.29;40.70
59767;BME280;46248;58.364;25.582;2023-06-10T06:04:01;102141.75;;;15.52;39.38
59767;BME280;46248;58.364;25.582;2023-06-10T06:07:24;102132.16;;;15.70;37.33
59767;BME280;46248;58.364;25.582;2023-06-10T06:15:36;102140.00;;;15.90;34.07
59767;BME280;46248;58.364;25.582;2023-06-10T06:18:59;102134.28;;;15.99;35.73
59767;BME280;46248;58.364;25.582;2023-06-10T06:22:22;102144.25;;;16.12;34.29
59767;BME280;46248;58.364;25.582;2023-06-10T06:25:45;102149.63;;;16.10;33.19
59767;BME280;46248;58.364;25.582;2023-06-10T06:29:08;102136.25;;;16.13;33.90
59767;BME280;46248;58.364;25.582;2023-06-10T06:32:32;102140.84;;;16.10;33.92
59767;BME280;46248;58.364;25.582;2023-06-10T06:35:55;102136.66;;;16.23;34.84
59767;BME280;46248;58.364;25.582;2023-06-10T06:39:18;102133.75;;;16.46;34.18
59767;BME280;46248;58.364;25.582;2023-06-10T06:42:41;102135.75;;;16.41;31.18
59767;BME280;46248;58.364;25.582;2023-06-10T06:46:05;102134.03;;;16.40;32.30
59767;BME280;46248;58.364;25.582;2023-06-10T06:49:30;102140.25;;;16.39;32.06
59767;BME280;46248;58.364;25.582;2023-06-10T06:52:53;102143.78;;;16.21;32.35
59767;BME280;46248;58.364;25.582;2023-06-10T06:56:16;102143.03;;;16.36;33.15
59767;BME280;46248;58.364;25.582;2023-06-10T06:59:39;102142.91;;;16.57;33.24
59767;BME280;46248;58.364;25.582;2023-06-10T07:03:02;102152.78;;;16.70;31.80
59767;BME280;46248;58.364;25.582;2023-06-10T07:06:27;102153.72;;;16.52;31.73
59767;BME280;46248;58.364;25.582;2023-06-10T07:09:52;102157.53;;;16.46;32.18
59767;BME280;46248;58.364;25.582;2023-06-10T07:13:15;102160.03;;;16.49;31.17
59767;BME280;46248;58.364;25.582;2023-06-10T07:16:37;102157.44;;;16.48;32.12
59767;BME280;46248;58.364;25.582;2023-06-10T07:20:00;102168.81;;;16.67;32.47
59767;BME280;46248;58.364;25.582;2023-06-10T07:23:25;102164.28;;;16.69;31.14
59767;BME280;46248;58.364;25.582;2023-06-10T07:26:48;102166.50;;;16.61;31.89
59767;BME280;46248;58.364;25.582;2023-06-10T07:30:12;102174.94;;;16.51;30.90
59767;BME280;46248;58.364;25.582;2023-06-10T07:33:35;102174.16;;;16.31;32.19
59767;BME280;46248;58.364;25.582;2023-06-10T07:36:58;102164.84;;;16.59;32.42
59767;BME280;46248;58.364;25.582;2023-06-10T07:40:23;102168.38;;;16.77;31.55
59767;BME280;46248;58.364;25.582;2023-06-10T07:43:46;102162.16;;;16.78;30.64
59767;BME280;46248;58.364;25.582;2023-06-10T07:47:09;102172.34;;;16.85;30.91
59767;BME280;46248;58.364;25.582;2023-06-10T07:50:32;102170.34;;;17.06;31.22
59767;BME280;46248;58.364;25.582;2023-06-10T07:53:55;102184.41;;;17.24;30.43
59767;BME280;46248;58.364;25.582;2023-06-10T07:57:19;102180.34;;;17.01;32.11
59767;BME280;46248;58.364;25.582;2023-06-10T08:00:42;102176.59;;;16.88;31.76
59767;BME280;46248;58.364;25.582;2023-06-10T08:04:06;102172.78;;;16.93;32.04
59767;BME280;46248;58.364;25.582;2023-06-10T08:07:29;102177.53;;;17.22;32.20
59767;BME280;46248;58.364;25.582;2023-06-10T08:10:51;102184.00;;;17.49;31.50
59767;BME280;46248;58.364;25.582;2023-06-10T08:14:16;102173.22;;;17.52;29.52
59767;BME280;46248;58.364;25.582;2023-06-10T08:17:39;102177.81;;;17.49;30.73
59767;BME280;46248;58.364;25.582;2023-06-10T08:21:02;102177.53;;;17.71;31.51
59767;BME280;46248;58.364;25.582;2023-06-10T08:24:24;102172.88;;;17.92;30.59
59767;BME280;46248;58.364;25.582;2023-06-10T08:27:47;102177.31;;;18.07;31.39
59767;BME280;46248;58.364;25.582;2023-06-10T08:31:13;102182.59;;;18.23;31.15
59767;BME280;46248;58.364;25.582;2023-06-10T08:34:36;102179.16;;;17.73;29.98
59767;BME280;46248;58.364;25.582;2023-06-10T08:37:59;102181.75;;;17.42;32.08
59767;BME280;46248;58.364;25.582;2023-06-10T08:41:24;102187.00;;;17.26;32.47
59767;BME280;46248;58.364;25.582;2023-06-10T08:44:49;102190.69;;;17.06;32.72
59767;BME280;46248;58.364;25.582;2023-06-10T08:48:17;102174.81;;;17.06;32.82
59767;BME280;46248;58.364;25.582;2023-06-10T08:51:42;102188.34;;;17.17;33.37
59767;BME280;46248;58.364;25.582;2023-06-10T08:55:11;102173.88;;;17.07;33.08
59767;BME280;46248;58.364;25.582;2023-06-10T08:58:34;102187.31;;;17.20;33.60
59767;BME280;46248;58.364;25.582;2023-06-10T09:02:04;102187.31;;;17.20;34.01
59767;BME280;46248;58.364;25.582;2023-06-10T09:05:30;102198.06;;;17.16;33.74
59767;BME280;46248;58.364;25.582;2023-06-10T09:08:57;102191.84;;;17.00;34.06
59767;BME280;46248;58.364;25.582;2023-06-10T09:12:23;102194.31;;;17.21;33.81
59767;BME280;46248;58.364;25.582;2023-06-10T09:15:46;102191.31;;;17.44;33.95
59767;BME280;46248;58.364;25.582;2023-06-10T09:19:11;102195.50;;;17.48;34.05
59767;BME280;46248;58.364;25.582;2023-06-10T09:22:35;102193.88;;;17.46;33.72
59767;BME280;46248;58.364;25.582;2023-06-10T09:25:58;102193.63;;;17.50;33.76
59767;BME280;46248;58.364;25.582;2023-06-10T09:29:21;102193.81;;;17.47;34.11
59767;BME280;46248;58.364;25.582;2023-06-10T09:32:44;102194.91;;;17.43;33.76
59767;BME280;46248;58.364;25.582;2023-06-10T09:36:07;102191.16;;;17.47;33.52
59767;BME280;46248;58.364;25.582;2023-06-10T09:39:31;102189.06;;;17.36;34.40
59767;BME280;46248;58.364;25.582;2023-06-10T09:42:55;102187.13;;;17.40;35.12
59767;BME280;46248;58.364;25.582;2023-06-10T09:46:19;102186.97;;;17.43;34.44
59767;BME280;46248;58.364;25.582;2023-06-10T09:49:43;102185.13;;;17.61;33.82
59767;BME280;46248;58.364;25.582;2023-06-10T09:53:06;102190.59;;;17.74;33.57
59767;BME280;46248;58.364;25.582;2023-06-10T09:56:35;102181.56;;;17.78;33.49
59767;BME280;46248;58.364;25.582;2023-06-10T09:59:58;102181.19;;;17.68;34.02
59767;BME280;46248;58.364;25.582;2023-06-10T10:03:22;102178.94;;;17.45;33.58
59767;BME280;46248;58.364;25.582;2023-06-10T10:06:45;102178.13;;;17.27;33.78
59767;BME280;46248;58.364;25.582;2023-06-10T10:10:09;102185.53;;;17.20;33.55
59767;BME280;46248;58.364;25.582;2023-06-10T10:13:34;102178.84;;;17.13;33.60
59767;BME280;46248;58.364;25.582;2023-06-10T10:16:57;102174.78;;;17.23;33.43
59767;BME280;46248;58.364;25.582;2023-06-10T10:20:27;102161.72;;;17.36;33.39
59767;BME280;46248;58.364;25.582;2023-06-10T10:23:56;102171.94;;;17.44;34.27
59767;BME280;46248;58.364;25.582;2023-06-10T10:27:26;102166.88;;;17.55;33.51
59767;BME280;46248;58.364;25.582;2023-06-10T10:30:53;102161.00;;;17.50;34.05
59767;BME280;46248;58.364;25.582;2023-06-10T10:34:21;102150.75;;;17.75;34.04
59767;BME280;46248;58.364;25.582;2023-06-10T10:37:47;102157.53;;;17.97;32.65
59767;BME280;46248;58.364;25.582;2023-06-10T10:41:10;102152.41;;;17.94;32.63
59767;BME280;46248;58.364;25.582;2023-06-10T10:44:34;102152.38;;;17.62;33.32
59767;BME280;46248;58.364;25.582;2023-06-10T10:47:58;102158.09;;;17.54;33.21
59767;BME280;46248;58.364;25.582;2023-06-10T10:51:33;102153.53;;;17.25;32.82
59767;BME280;46248;58.364;25.582;2023-06-10T10:54:56;102157.34;;;17.19;33.51
59767;BME280;46248;58.364;25.582;2023-06-10T10:58:25;102152.88;;;17.04;33.54
59767;BME280;46248;58.364;25.582;2023-06-10T11:01:48;102152.09;;;17.02;33.91
59767;BME280;46248;58.364;25.582;2023-06-10T11:05:16;102132.66;;;17.18;34.20
59767;BME280;46248;58.364;25.582;2023-06-10T11:08:46;102148.47;;;17.20;34.46
59767;BME280;46248;58.364;25.582;2023-06-10T11:12:09;102147.75;;;17.01;34.06
59767;BME280;46248;58.364;25.582;2023-06-10T11:15:32;102144.38;;;16.97;34.64
59767;BME280;46248;58.364;25.582;2023-06-10T11:18:56;102128.97;;;17.05;34.53
59767;BME280;46248;58.364;25.582;2023-06-10T11:22:20;102140.06;;;17.12;34.79
59767;BME280;46248;58.364;25.582;2023-06-10T11:25:43;102141.19;;;17.08;34.80
59767;BME280;46248;58.364;25.582;2023-06-10T11:29:09;102145.03;;;17.18;33.95
59767;BME280;46248;58.364;25.582;2023-06-10T11:32:33;102140.47;;;17.37;34.32
59767;BME280;46248;58.364;25.582;2023-06-10T11:35:57;102123.41;;;17.43;33.27
59767;BME280;46248;58.364;25.582;2023-06-10T11:39:23;102138.19;;;17.63;33.07
59767;BME280;46248;58.364;25.582;2023-06-10T11:42:48;102133.22;;;17.73;33.42
59767;BME280;46248;58.364;25.582;2023-06-10T11:46:10;102138.19;;;17.63;33.43
59767;BME280;46248;58.364;25.582;2023-06-10T11:49:34;102144.84;;;17.54;33.72
59767;BME280;46248;58.364;25.582;2023-06-10T11:52:56;102143.22;;;17.52;34.06
59767;BME280;46248;58.364;25.582;2023-06-10T11:56:21;102138.97;;;17.49;33.75
59767;BME280;46248;58.364;25.582;2023-06-10T11:59:44;102145.69;;;17.55;33.45
59767;BME280;46248;58.364;25.582;2023-06-10T12:03:07;102133.22;;;17.73;33.37
59767;BME280;46248;58.364;25.582;2023-06-10T12:06:44;102131.50;;;17.89;32.15
59767;BME280;46248;58.364;25.582;2023-06-10T12:10:08;102141.47;;;18.00;33.26
59767;BME280;46248;58.364;25.582;2023-06-10T12:13:49;102143.03;;;18.04;32.79
59767;BME280;46248;58.364;25.582;2023-06-10T12:17:12;102141.22;;;18.04;32.98
59767;BME280;46248;58.364;25.582;2023-06-10T12:20:36;102143.88;;;17.89;32.87
59767;BME280;46248;58.364;25.582;2023-06-10T12:24:03;102128.50;;;17.79;33.04
59767;BME280;46248;58.364;25.582;2023-06-10T12:27:27;102140.63;;;17.83;33.10
59767;BME280;46248;58.364;25.582;2023-06-10T12:31:06;102134.66;;;17.80;34.37
59767;BME280;46248;58.364;25.582;2023-06-10T12:34:34;102132.50;;;18.02;33.60
59767;BME280;46248;58.364;25.582;2023-06-10T12:37:59;102132.22;;;17.91;33.45
59767;BME280;46248;58.364;25.582;2023-06-10T12:41:23;102128.06;;;17.87;33.28
59767;BME280;46248;58.364;25.582;2023-06-10T12:44:46;102135.50;;;17.80;33.47
59767;BME280;46248;58.364;25.582;2023-06-10T12:48:11;102130.41;;;17.76;33.35
59767;BME280;46248;58.364;25.582;2023-06-10T12:51:34;102131.28;;;17.76;34.25
59767;BME280;46248;58.364;25.582;2023-06-10T12:54:58;102126.53;;;17.83;33.38
59767;BME280;46248;58.364;25.582;2023-06-10T12:58:22;102125.22;;;17.90;33.35
59767;BME280;46248;58.364;25.582;2023-06-10T13:01:50;102117.03;;;17.95;32.81
59767;BME280;46248;58.364;25.582;2023-06-10T13:05:14;102109.66;;;18.00;32.85
59767;BME280;46248;58.364;25.582;2023-06-10T13:08:38;102107.34;;;18.10;32.71
59767;BME280;46248;58.364;25.582;2023-06-10T13:12:01;102107.69;;;18.19;32.74
59767;BME280;46248;58.364;25.582;2023-06-10T13:15:24;102112.25;;;18.31;32.78
59767;BME280;46248;58.364;25.582;2023-06-10T13:18:47;102107.22;;;18.27;32.76
59767;BME280;46248;58.364;25.582;2023-06-10T13:22:11;102114.25;;;18.12;32.14
59767;BME280;46248;58.364;25.582;2023-06-10T13:25:35;102111.59;;;18.12;32.98
59767;BME280;46248;58.364;25.582;2023-06-10T13:28:57;102108.09;;;18.12;31.76
59767;BME280;46248;58.364;25.582;2023-06-10T13:32:20;102113.50;;;18.10;32.46
59767;BME280;46248;58.364;25.582;2023-06-10T13:35:43;102094.72;;;17.99;32.20
59767;BME280;46248;58.364;25.582;2023-06-10T13:39:07;102090.56;;;18.09;32.31
59767;BME280;46248;58.364;25.582;2023-06-10T13:42:30;102092.97;;;18.14;32.73
59767;BME280;46248;58.364;25.582;2023-06-10T13:45:53;102091.53;;;18.08;32.36
59767;BME280;46248;58.364;25.582;2023-06-10T13:49:15;102090.41;;;18.12;33.08
59767;BME280;46248;58.364;25.582;2023-06-10T13:52:38;102094.09;;;18.10;33.19
59767;BME280;46248;58.364;25.582;2023-06-10T13:56:03;102087.56;;;18.15;33.39
59767;BME280;46248;58.364;25.582;2023-06-10T13:59:27;102087.22;;;18.21;32.83
59767;BME280;46248;58.364;25.582;2023-06-10T14:02:49;102083.63;;;18.22;32.69
59767;BME280;46248;58.364;25.582;2023-06-10T14:06:13;102079.44;;;18.18;32.56
59767;BME280;46248;58.364;25.582;2023-06-10T14:09:39;102072.53;;;18.16;32.37
59767;BME280;46248;58.364;25.582;2023-06-10T14:13:03;102082.09;;;18.18;32.22
59767;BME280;46248;58.364;25.582;2023-06-10T14:16:27;102078.41;;;18.21;31.89
59767;BME280;46248;58.364;25.582;2023-06-10T14:19:49;102081.91;;;18.21;32.22
59767;BME280;46248;58.364;25.582;2023-06-10T14:23:13;102081.72;;;18.24;31.96
59767;BME280;46248;58.364;25.582;2023-06-10T14:26:35;102083.16;;;18.16;32.59
59767;BME280;46248;58.364;25.582;2023-06-10T14:30:00;102078.91;;;18.27;32.44
59767;BME280;46248;58.364;25.582;2023-06-10T14:33:24;102083.09;;;18.31;32.31
59767;BME280;46248;58.364;25.582;2023-06-10T14:36:46;102078.81;;;18.29;32.37
59767;BME280;46248;58.364;25.582;2023-06-10T14:40:09;102069.72;;;18.33;32.71
59767;BME280;46248;58.364;25.582;2023-06-10T14:43:32;102055.13;;;18.26;32.39
59767;BME280;46248;58.364;25.582;2023-06-10T14:46:56;102058.63;;;18.26;32.24
59767;BME280;46248;58.364;25.582;2023-06-10T14:50:19;102058.69;;;18.41;31.82
59767;BME280;46248;58.364;25.582;2023-06-10T14:53:42;102057.91;;;18.39;32.27
59767;BME280;46248;58.364;25.582;2023-06-10T14:57:05;102067.25;;;18.30;30.63
59767;BME280;46248;58.364;25.582;2023-06-10T15:00:28;102066.81;;;18.38;31.64
59767;BME280;46248;58.364;25.582;2023-06-10T15:03:52;102057.16;;;18.37;31.72
59767;BME280;46248;58.364;25.582;2023-06-10T15:07:15;102061.22;;;18.42;31.83
59767;BME280;46248;58.364;25.582;2023-06-10T15:10:38;102070.78;;;18.45;32.61
59767;BME280;46248;58.364;25.582;2023-06-10T15:14:01;102066.16;;;18.48;32.39
59767;BME280;46248;58.364;25.582;2023-06-10T15:17:24;102061.91;;;18.46;32.64
59767;BME280;46248;58.364;25.582;2023-06-10T15:20:48;102068.34;;;18.42;32.12
59767;BME280;46248;58.364;25.582;2023-06-10T15:24:11;102056.09;;;18.39;32.50
59767;BME280;46248;58.364;25.582;2023-06-10T15:27:34;102075.06;;;18.47;32.06
59767;BME280;46248;58.364;25.582;2023-06-10T15:30:57;102063.09;;;18.26;31.98
59767;BME280;46248;58.364;25.582;2023-06-10T15:34:20;102069.47;;;18.38;32.12
59767;BME280;46248;58.364;25.582;2023-06-10T15:37:44;102067.03;;;18.49;31.93
59767;BME280;46248;58.364;25.582;2023-06-10T15:41:07;102076.22;;;18.58;31.59
59767;BME280;46248;58.364;25.582;2023-06-10T15:44:30;102069.69;;;18.63;31.44
59767;BME280;46248;58.364;25.582;2023-06-10T15:47:53;102063.41;;;18.94;31.17
59767;BME280;46248;58.364;25.582;2023-06-10T15:51:16;102073.44;;;19.59;31.23
59767;BME280;46248;58.364;25.582;2023-06-10T15:54:40;102074.88;;;20.32;30.92
59767;BME280;46248;58.364;25.582;2023-06-10T15:58:03;102090.38;;;20.78;31.31
59767;BME280;46248;58.364;25.582;2023-06-10T16:01:26;102064.19;;;20.97;30.16
59767;BME280;46248;58.364;25.582;2023-06-10T16:04:49;102078.09;;;21.39;30.16
59767;BME280;46248;58.364;25.582;2023-06-10T16:08:12;102063.94;;;21.87;29.25
59767;BME280;46248;58.364;25.582;2023-06-10T16:11:36;102065.25;;;22.63;30.14
59767;BME280;46248;58.364;25.582;2023-06-10T16:15:01;102067.75;;;23.11;29.05
59767;BME280;46248;58.364;25.582;2023-06-10T16:18:24;102065.00;;;23.45;28.11
59767;BME280;46248;58.364;25.582;2023-06-10T16:21:47;102068.28;;;23.71;27.65
59767;BME280;46248;58.364;25.582;2023-06-10T16:25:10;102066.63;;;23.36;27.55
59767;BME280;46248;58.364;25.582;2023-06-10T16:28:34;102067.84;;;23.87;28.08
59767;BME280;46248;58.364;25.582;2023-06-10T16:31:56;102055.84;;;24.55;25.88
59767;BME280;46248;58.364;25.582;2023-06-10T16:35:23;102073.97;;;25.03;25.94
59767;BME280;46248;58.364;25.582;2023-06-10T16:38:46;102069.72;;;25.31;25.01
59767;BME280;46248;58.364;25.582;2023-06-10T16:42:09;102064.31;;;24.81;25.40
59767;BME280;46248;58.364;25.582;2023-06-10T16:45:34;102069.81;;;24.59;25.76
59767;BME280;46248;58.364;25.582;2023-06-10T16:48:56;102064.31;;;24.39;25.26
59767;BME280;46248;58.364;25.582;2023-06-10T16:52:19;102068.34;;;24.13;24.83
59767;BME280;46248;58.364;25.582;2023-06-10T16:55:42;102061.81;;;23.62;26.25
59767;BME280;46248;58.364;25.582;2023-06-10T16:59:05;102062.09;;;23.48;25.87
59767;BME280;46248;58.364;25.582;2023-06-10T17:02:31;102077.72;;;23.75;25.50
59767;BME280;46248;58.364;25.582;2023-06-10T17:05:54;102081.28;;;23.64;24.60
59767;BME280;46248;58.364;25.582;2023-06-10T17:09:17;102087.34;;;23.66;26.54
59767;BME280;46248;58.364;25.582;2023-06-10T17:12:41;102072.84;;;23.69;26.23
59767;BME280;46248;58.364;25.582;2023-06-10T17:16:04;102091.22;;;23.85;26.31
59767;BME280;46248;58.364;25.582;2023-06-10T17:19:29;102082.09;;;24.08;24.82
59767;BME280;46248;58.364;25.582;2023-06-10T17:22:52;102087.88;;;23.92;25.88
59767;BME280;46248;58.364;25.582;2023-06-10T17:26:15;102077.47;;;23.78;26.25
59767;BME280;46248;58.364;25.582;2023-06-10T17:29:38;102084.22;;;23.72;26.19
59767;BME280;46248;58.364;25.582;2023-06-10T17:33:01;102089.81;;;23.69;26.17
59767;BME280;46248;58.364;25.582;2023-06-10T17:36:27;102090.78;;;23.57;25.72
59767;BME280;46248;58.364;25.582;2023-06-10T17:39:50;102097.00;;;23.35;26.75